Time;durP1;ratioP1;P1;durP2;ratioP2;P2;SDS_P1;SDS_P2;PMS_P1;PMS_P2;Temp;Humidity;BMP_temperature;BMP_pressure;BME280_temperature;BME280_humidity;BME280_pressure;Samples;Min_cycle;Max_cycle;Signal;HPM_P1;HPM_P2
2023/03/01 00:01:31;;;;;;;15.82;7.35;;;;;;;-1.49;69.68;102966.00;5032871;28;20057;-55
2023/03/01 00:03:58;;;;;;;13.75;6.90;;;;;;;-1.49;69.58;102966.88;5032871;28;20033;-56
2023/03/01 00:06:25;;;;;;;17.55;7.88;;;;;;;-1.47;69.71;102977.25;5034172;28;20067;-58
2023/03/01 00:08:50;;;;;;;18.15;7.13;;;;;;;-1.49;69.44;102974.63;5033156;28;20652;-58
2023/03/01 00:11:22;;;;;;;16.27;7.50;;;;;;;-1.49;69.25;102976.34;5026261;28;20043;-59
2023/03/01 00:13:49;;;;;;;17.20;7.57;;;;;;;-1.56;69.71;102973.56;5031689;28;20474;-59
2023/03/01 00:16:18;;;;;;;16.55;7.50;;;;;;;-1.55;70.08;102975.31;5029660;28;20102;-55
2023/03/01 00:18:44;;;;;;;15.77;8.18;;;;;;;-1.61;70.05;102972.56;5033626;28;20111;-56
2023/03/01 00:21:11;;;;;;;10.10;5.28;;;;;;;-1.65;69.83;102981.06;5032670;28;20040;-56
2023/03/01 00:23:37;;;;;;;16.95;6.30;;;;;;;-1.68;69.90;102968.06;5036119;28;20037;-56
2023/03/01 00:26:07;;;;;;;13.85;7.55;;;;;;;-1.72;69.13;102973.94;5035728;28;20049;-57
2023/03/01 00:28:32;;;;;;;13.55;6.60;;;;;;;-1.75;69.78;102966.13;5024672;28;20546;-56
2023/03/01 00:31:12;;;;;;;13.45;7.03;;;;;;;-1.77;69.88;102958.34;5034411;28;20037;-56
2023/03/01 00:33:37;;;;;;;14.57;6.85;;;;;;;-1.82;69.60;102959.03;5041142;28;20053;-56
2023/03/01 00:36:03;;;;;;;11.52;5.55;;;;;;;-1.82;69.54;102965.09;5030790;28;20061;-56
2023/03/01 00:38:30;;;;;;;18.65;6.90;;;;;;;-1.82;69.49;102965.09;5027251;28;20033;-54
2023/03/01 00:41:02;;;;;;;9.48;5.20;;;;;;;-1.82;69.52;102971.94;5039164;28;20055;-56
2023/03/01 00:43:27;;;;;;;8.93;5.28;;;;;;;-1.88;69.92;102964.88;5026741;28;20120;-55
2023/03/01 00:45:53;;;;;;;10.07;5.15;;;;;;;-1.90;69.92;102951.94;5025293;28;20502;-55
2023/03/01 00:48:18;;;;;;;12.10;5.80;;;;;;;-1.88;69.86;102960.59;5019493;28;20041;-60
2023/03/01 00:50:44;;;;;;;9.80;5.75;;;;;;;-1.86;69.47;102947.75;5024666;28;20129;-58
2023/03/01 00:53:09;;;;;;;11.07;5.22;;;;;;;-1.91;69.97;102942.47;5030543;28;20096;-55
2023/03/01 00:55:35;;;;;;;11.27;4.90;;;;;;;-1.99;70.20;102936.16;5031916;28;20029;-55
2023/03/01 00:58:01;;;;;;;13.45;5.90;;;;;;;-2.01;69.88;102933.56;5035593;28;20040;-55
2023/03/01 01:00:27;;;;;;;10.15;5.32;;;;;;;-1.99;70.12;102933.59;5028731;28;20037;-60
2023/03/01 01:02:53;;;;;;;12.27;5.60;;;;;;;-1.96;70.24;102925.94;5034401;28;20033;-57
2023/03/01 01:05:20;;;;;;;11.95;6.80;;;;;;;-1.96;70.56;102920.78;5036245;28;20129;-55
2023/03/01 01:07:47;;;;;;;11.30;5.75;;;;;;;-1.94;70.25;102919.13;5027624;28;20029;-55
2023/03/01 01:10:16;;;;;;;13.00;6.22;;;;;;;-1.97;70.13;102907.84;5039001;28;20032;-56
2023/03/01 01:12:46;;;;;;;12.45;6.55;;;;;;;-1.98;69.89;102906.97;5033565;28;20115;-56
2023/03/01 01:15:13;;;;;;;9.07;5.55;;;;;;;-1.99;70.51;102905.22;5034099;28;20037;-57
2023/03/01 01:17:40;;;;;;;9.60;5.10;;;;;;;-2.00;70.36;102898.28;5031922;28;20050;-56
2023/03/01 01:20:06;;;;;;;9.43;4.90;;;;;;;-2.00;70.20;102895.72;5038706;28;20448;-56
2023/03/01 01:22:31;;;;;;;7.88;4.50;;;;;;;-2.03;69.69;102893.03;5034338;28;20021;-55
2023/03/01 01:24:57;;;;;;;13.00;5.60;;;;;;;-2.06;69.66;102892.97;5027561;28;20065;-56
2023/03/01 01:27:22;;;;;;;11.05;6.60;;;;;;;-2.12;70.07;102892.78;5032271;28;20075;-56
2023/03/01 01:29:48;;;;;;;9.40;4.35;;;;;;;-2.15;70.50;102897.00;5041396;28;20409;-57
2023/03/01 01:32:13;;;;;;;10.75;5.47;;;;;;;-2.15;70.20;102896.16;5030840;28;20039;-56
2023/03/01 01:34:39;;;;;;;10.93;4.43;;;;;;;-2.12;70.28;102892.78;5034832;28;20021;-59
2023/03/01 01:37:07;;;;;;;10.52;4.55;;;;;;;-2.18;70.17;102894.34;5036809;28;20060;-55
2023/03/01 01:39:34;;;;;;;11.18;4.88;;;;;;;-2.19;70.33;102897.75;5019536;28;20066;-57
2023/03/01 01:42:01;;;;;;;11.20;5.15;;;;;;;-2.19;70.23;102899.47;5033483;28;20040;-57
2023/03/01 01:44:28;;;;;;;12.35;5.68;;;;;;;-2.23;70.42;102901.09;5030111;28;20021;-55
2023/03/01 01:46:56;;;;;;;13.43;5.72;;;;;;;-2.23;70.56;102900.19;5031341;28;21509;-57
2023/03/01 01:49:27;;;;;;;11.32;5.88;;;;;;;-2.22;70.58;102907.09;5020989;28;20533;-55
2023/03/01 01:52:05;;;;;;;10.50;5.53;;;;;;;-2.23;70.21;102916.56;5043740;28;20089;-55
2023/03/01 01:54:41;;;;;;;9.80;5.53;;;;;;;-2.23;70.68;102919.13;5035888;28;20028;-54
2023/03/01 01:57:21;;;;;;;12.27;5.13;;;;;;;-2.22;70.56;102902.84;5034730;28;20427;-55
2023/03/01 01:59:52;;;;;;;12.18;5.93;;;;;;;-2.19;70.32;102896.88;5026596;28;20122;-55
2023/03/01 02:02:19;;;;;;;9.38;5.65;;;;;;;-2.20;70.39;102895.13;5043695;28;20040;-54
2023/03/01 02:04:45;;;;;;;8.20;5.10;;;;;;;-2.20;70.61;102900.28;5034657;28;20045;-55
2023/03/01 02:07:22;;;;;;;12.45;6.15;;;;;;;-2.21;70.46;102895.97;5026245;28;20490;-57
2023/03/01 02:09:50;;;;;;;9.23;5.65;;;;;;;-2.22;70.57;102902.84;5033587;28;20060;-55
2023/03/01 02:12:19;;;;;;;11.25;5.75;;;;;;;-2.21;70.24;102902.00;5027342;28;20029;-57
2023/03/01 02:14:44;;;;;;;8.90;4.50;;;;;;;-2.22;70.12;102900.25;5033667;28;20017;-55
2023/03/01 02:17:12;;;;;;;11.65;5.10;;;;;;;-2.22;69.72;102897.69;5048378;28;20618;-58
2023/03/01 02:20:15;;;;;;;11.38;4.82;;;;;;;-2.29;70.35;102890.56;5033935;28;20063;-55
2023/03/01 02:22:43;;;;;;;;;;;;;;;-2.39;70.31;102902.31;5035341;28;20046;-54
2023/03/01 02:25:20;;;;;;;10.13;4.25;;;;;;;-2.40;70.55;102897.09;5036547;28;19929;-60
2023/03/01 02:28:13;;;;;;;5.82;3.38;;;;;;;-2.44;70.35;102903.88;5032295;28;20457;-54
2023/03/01 02:31:41;;;;;;;9.60;4.65;;;;;;;-2.44;70.71;102901.31;5032392;28;20024;-55
2023/03/01 02:33:27;;;;;;;8.10;4.90;;;;;;;-2.49;70.29;102906.28;5034174;28;20059;-54
2023/03/01 02:35:54;;;;;;;13.25;5.70;;;;;;;-2.52;70.72;102898.47;5015587;28;20040;-55
2023/03/01 02:38:21;;;;;;;14.80;5.82;;;;;;;-2.54;71.21;102894.97;5042898;28;20482;-54
2023/03/01 02:40:48;;;;;;;14.98;7.30;;;;;;;-2.56;71.47;102888.91;5034237;28;20048;-58
2023/03/01 02:43:14;;;;;;;17.80;6.43;;;;;;;-2.54;71.37;102889.81;5037611;28;20104;-56
2023/03/01 02:45:48;;;;;;;12.25;5.28;;;;;;;-2.55;71.27;102877.75;5031884;28;20040;-56
2023/03/01 02:48:14;;;;;;;10.85;4.78;;;;;;;-2.57;71.58;102873.38;5032146;28;20048;-55
2023/03/01 02:51:03;;;;;;;11.25;4.57;;;;;;;-2.60;71.95;102876.72;5021852;28;20053;-56
2023/03/01 02:53:43;;;;;;;10.10;4.95;;;;;;;-2.62;71.48;102873.22;5032608;28;20126;-57
2023/03/01 02:56:12;;;;;;;13.43;5.03;;;;;;;-2.62;71.74;102875.78;5008994;28;20164;-57
2023/03/01 02:58:45;;;;;;;8.43;4.30;;;;;;;-2.65;71.38;102880.88;5014978;28;20033;-55
2023/03/01 03:01:14;;;;;;;12.90;6.05;;;;;;;-2.62;71.65;102880.94;5038202;28;20048;-55
2023/03/01 03:03:40;;;;;;;11.38;5.57;;;;;;;-2.62;71.77;102873.22;5014768;28;20025;-57
2023/03/01 03:06:06;;;;;;;11.85;5.30;;;;;;;-2.67;71.64;102887.69;5034725;28;20514;-57
2023/03/01 03:08:31;;;;;;;11.70;5.35;;;;;;;-2.76;72.05;102878.81;5032709;28;20894;-56
2023/03/01 03:10:57;;;;;;;13.95;5.30;;;;;;;-2.81;71.68;102875.25;5030286;28;20509;-58
2023/03/01 03:13:28;;;;;;;8.98;4.70;;;;;;;-2.83;72.33;102869.16;5035844;28;20452;-57
2023/03/01 03:15:55;;;;;;;17.55;5.97;;;;;;;-2.76;72.66;102865.94;5031960;28;20021;-55
2023/03/01 03:18:21;;;;;;;13.35;6.40;;;;;;;-2.72;72.29;102853.16;5030588;28;20099;-56
2023/03/01 03:20:46;;;;;;;12.02;6.07;;;;;;;-2.71;72.45;102860.06;5045152;28;20116;-57
2023/03/01 03:23:12;;;;;;;14.85;5.80;;;;;;;-2.69;72.67;102861.84;5043351;28;20840;-54
2023/03/01 03:25:38;;;;;;;12.98;5.00;;;;;;;-2.67;71.94;102856.75;5045230;28;20040;-54
2023/03/01 03:28:09;;;;;;;10.18;5.03;;;;;;;-2.68;72.26;102842.97;5047067;28;20036;-57
2023/03/01 03:30:38;;;;;;;10.60;4.88;;;;;;;-2.68;72.17;102842.13;5029054;28;20032;-57
2023/03/01 03:33:05;;;;;;;7.65;4.53;;;;;;;-2.68;72.28;102842.97;5032785;28;20047;-57
2023/03/01 03:35:37;;;;;;;10.05;4.85;;;;;;;-2.68;72.62;102844.69;5035044;28;20395;-55
2023/03/01 03:38:06;;;;;;;12.38;6.10;;;;;;;-2.69;72.53;102833.50;5032367;28;20036;-59
2023/03/01 03:40:37;;;;;;;7.53;3.53;;;;;;;-2.66;72.67;102827.59;5032720;28;20044;-57
2023/03/01 03:43:05;;;;;;;9.45;5.28;;;;;;;-2.63;72.82;102841.44;5037281;28;20483;-56
2023/03/01 03:45:33;;;;;;;11.63;4.90;;;;;;;-2.62;72.87;102831.97;5033149;28;20053;-57
2023/03/01 03:48:02;;;;;;;7.53;5.10;;;;;;;-2.61;72.96;102831.16;5030917;28;20036;-55
2023/03/01 03:50:27;;;;;;;12.68;5.28;;;;;;;-2.62;72.54;102824.25;5037101;28;20035;-56
2023/03/01 03:52:53;;;;;;;10.40;4.93;;;;;;;-2.59;72.70;102823.50;5035407;28;20031;-56
2023/03/01 03:55:19;;;;;;;11.63;4.70;;;;;;;-2.56;72.96;102828.72;5037121;28;20461;-54
2023/03/01 03:57:51;;;;;;;10.15;5.47;;;;;;;-2.51;72.53;102825.47;5030357;28;20033;-58
2023/03/01 04:00:19;;;;;;;9.70;5.35;;;;;;;-2.48;72.96;102833.28;5030707;28;20399;-56
2023/03/01 04:02:46;;;;;;;12.23;4.95;;;;;;;-2.42;72.60;102834.28;5031410;28;20072;-55
2023/03/01 04:05:14;;;;;;;10.32;5.97;;;;;;;-2.39;72.32;102837.84;5033386;28;26774;-58
2023/03/01 04:07:41;;;;;;;12.52;6.00;;;;;;;-2.37;72.51;102825.88;5038210;28;20031;-56
2023/03/01 04:10:11;;;;;;;11.35;5.78;;;;;;;-2.34;72.15;102825.06;5037132;28;20033;-57
2023/03/01 04:12:36;;;;;;;12.27;5.20;;;;;;;-2.34;72.28;102820.81;5033028;28;20760;-54
2023/03/01 04:15:12;;;;;;;12.20;6.53;;;;;;;-2.31;72.65;102825.16;5033360;28;20037;-55
2023/03/01 04:17:46;;;;;;;12.80;6.28;;;;;;;-2.26;72.54;102808.13;5039327;28;20037;-56
2023/03/01 04:20:17;;;;;;;12.23;6.03;;;;;;;-2.20;72.11;102805.75;5035680;28;20064;-56
2023/03/01 04:22:43;;;;;;;104.82;42.28;;;;;;;-2.17;71.82;102812.69;5043072;28;20542;-54
2023/03/01 04:25:09;;;;;;;15.95;7.55;;;;;;;-2.16;71.69;102812.72;5038027;28;20044;-59
2023/03/01 04:27:35;;;;;;;14.15;6.53;;;;;;;-2.17;71.79;102817.84;5038183;28;20041;-56
2023/03/01 04:30:03;;;;;;;14.02;5.70;;;;;;;-2.19;72.21;102817.78;5022834;28;20113;-57
2023/03/01 04:32:29;;;;;;;11.55;6.10;;;;;;;-2.20;71.88;102821.22;5034071;28;20044;-58
2023/03/01 04:34:54;;;;;;;12.77;5.85;;;;;;;-2.20;71.91;102821.22;5033562;28;20021;-59
2023/03/01 04:37:19;;;;;;;14.35;6.75;;;;;;;-2.24;71.60;102811.63;5035697;28;20054;-58
2023/03/01 04:39:45;;;;;;;11.93;5.95;;;;;;;-2.30;71.94;102812.34;5035836;28;20028;-58
2023/03/01 04:42:14;;;;;;;12.70;6.35;;;;;;;-2.28;72.18;102804.63;5044046;28;20078;-58
2023/03/01 04:44:40;;;;;;;12.35;5.55;;;;;;;-2.26;71.99;102807.25;5023954;28;20029;-61
2023/03/01 04:47:06;;;;;;;9.50;5.63;;;;;;;-2.24;71.44;102805.59;5039796;28;20032;-58
2023/03/01 04:49:31;;;;;;;8.65;5.72;;;;;;;-2.27;71.68;102801.22;5045073;28;20033;-60
2023/03/01 04:52:03;;;;;;;11.90;7.75;;;;;;;-2.27;71.60;102798.66;5032921;28;20027;-58
2023/03/01 04:54:33;;;;;;;12.82;7.50;;;;;;;-2.32;72.24;102795.03;5038644;28;20021;-58
2023/03/01 04:57:00;;;;;;;15.65;7.20;;;;;;;-2.35;72.19;102803.59;5038458;28;20055;-62
2023/03/01 04:59:26;;;;;;;12.35;6.63;;;;;;;-2.33;72.01;102801.03;5036534;28;20040;-60
2023/03/01 05:01:55;;;;;;;12.05;6.20;;;;;;;-2.33;71.99;102793.28;5038358;28;20098;-59
2023/03/01 05:04:21;;;;;;;15.07;6.85;;;;;;;-2.32;71.87;102795.03;5035735;28;20071;-56
2023/03/01 05:06:46;;;;;;;14.90;7.28;;;;;;;-2.29;72.13;102800.31;5035828;28;20108;-59
2023/03/01 05:09:12;;;;;;;15.88;8.23;;;;;;;-2.32;71.96;102793.38;5042559;28;20455;-60
2023/03/01 05:11:38;;;;;;;14.90;7.25;;;;;;;-2.33;72.15;102801.94;5038973;28;20032;-56
2023/03/01 05:14:05;;;;;;;11.75;7.40;;;;;;;-2.34;72.46;102805.34;5012455;28;20021;-57
2023/03/01 05:16:31;;;;;;;11.63;6.53;;;;;;;-2.34;72.15;102805.34;5031662;28;20037;-59
2023/03/01 05:18:58;;;;;;;16.58;7.65;;;;;;;-2.32;72.76;102800.22;5034415;28;20041;-53
2023/03/01 05:21:24;;;;;;;19.55;8.43;;;;;;;-2.30;72.50;102801.13;5026983;28;20044;-54
2023/03/01 05:23:50;;;;;;;17.00;7.97;;;;;;;-2.33;72.02;102801.03;5037773;28;20514;-57
2023/03/01 05:26:18;;;;;;;11.88;6.82;;;;;;;-2.33;72.45;102793.28;5033825;28;20110;-57
2023/03/01 05:28:44;;;;;;;11.52;7.00;;;;;;;-2.34;72.20;102791.56;5042453;28;20028;-55
2023/03/01 05:31:09;;;;;;;16.13;7.95;;;;;;;-2.35;72.13;102792.41;5029232;28;20033;-54
2023/03/01 05:33:40;;;;;;;17.55;7.68;;;;;;;-2.35;72.24;102801.00;5020540;28;20025;-54
2023/03/01 05:36:07;;;;;;;16.15;8.15;;;;;;;-2.38;71.84;102802.63;5017381;28;20112;-55
2023/03/01 05:38:33;;;;;;;14.27;7.53;;;;;;;-2.39;71.99;102806.03;5020180;28;20037;-55
2023/03/01 05:40:59;;;;;;;16.77;7.95;;;;;;;-2.40;72.38;102799.13;5020384;28;20033;-57
2023/03/01 05:43:25;;;;;;;14.88;7.40;;;;;;;-2.45;72.19;102807.59;5037944;28;20025;-56
2023/03/01 05:45:51;;;;;;;12.73;6.18;;;;;;;-2.52;72.07;102795.38;5034642;28;20063;-57
2023/03/01 05:48:19;;;;;;;12.73;7.45;;;;;;;-2.53;72.66;102796.19;5033180;28;20033;-56
2023/03/01 05:50:45;;;;;;;13.77;7.18;;;;;;;-2.52;72.67;102809.94;5027477;28;20577;-56
2023/03/01 05:53:10;;;;;;;49.20;21.88;;;;;;;-2.51;72.31;102806.53;5033972;28;20039;-59
2023/03/01 05:55:37;;;;;;;22.25;8.45;;;;;;;-2.52;73.03;102800.53;5027080;28;20041;-56
2023/03/01 05:58:05;;;;;;;19.98;9.35;;;;;;;-2.48;72.72;102799.75;5035237;28;20032;-56
2023/03/01 06:00:32;;;;;;;19.08;9.35;;;;;;;-2.46;72.42;102804.97;5017860;28;20029;-55
2023/03/01 06:02:58;;;;;;;23.60;9.57;;;;;;;-2.50;72.67;102801.44;5033317;28;20411;-57
2023/03/01 06:05:24;;;;;;;19.27;9.63;;;;;;;-2.50;72.74;102804.03;5038069;28;20033;-56
2023/03/01 06:07:50;;;;;;;20.90;8.77;;;;;;;-2.48;72.96;102804.91;5017061;28;20040;-53
2023/03/01 06:10:17;;;;;;;18.98;9.90;;;;;;;-2.42;72.92;102816.25;5043173;28;20491;-53
2023/03/01 06:12:43;;;;;;;17.70;9.07;;;;;;;-2.37;72.66;102796.63;5039886;28;20020;-55
2023/03/01 06:15:11;;;;;;;18.65;9.25;;;;;;;-2.35;72.46;102800.16;5026692;28;20106;-54
2023/03/01 06:17:38;;;;;;;18.95;8.43;;;;;;;-2.33;72.00;102806.19;5043766;28;20032;-54
2023/03/01 06:20:22;;;;;;;15.60;8.60;;;;;;;-2.30;72.61;102806.28;5036551;28;20060;-54
2023/03/01 06:22:49;;;;;;;22.17;10.00;;;;;;;-2.24;72.45;102805.59;5019980;28;20116;-56
2023/03/01 06:25:17;;;;;;;24.80;10.32;;;;;;;-2.22;72.26;102804.81;5032717;28;24828;-61
2023/03/01 06:27:43;;;;;;;23.35;10.95;;;;;;;-2.22;72.51;102803.94;5035148;28;20423;-55
2023/03/01 06:30:11;;;;;;;17.05;8.73;;;;;;;-2.22;73.04;102804.81;5028490;28;25665;-54
2023/03/01 06:32:37;;;;;;;16.17;8.50;;;;;;;-2.18;72.32;102804.06;5031981;28;20037;-54
2023/03/01 06:35:04;;;;;;;21.15;8.82;;;;;;;-2.11;72.75;102801.66;5038001;28;20040;-55
2023/03/01 06:37:30;;;;;;;18.30;9.30;;;;;;;-2.08;72.39;102806.91;5035089;28;20495;-55
2023/03/01 06:39:55;;;;;;;19.20;9.23;;;;;;;-2.06;72.19;102802.69;5033743;28;20029;-57
2023/03/01 06:42:20;;;;;;;25.85;11.00;;;;;;;-1.99;72.20;102812.31;5025084;28;20025;-58
2023/03/01 06:44:46;;;;;;;16.73;8.50;;;;;;;-1.97;71.93;102802.91;5027061;28;20045;-54
2023/03/01 06:47:12;;;;;;;18.98;10.05;;;;;;;-1.95;71.89;102809.00;5024745;28;20327;-55
2023/03/01 06:49:37;;;;;;;26.83;12.57;;;;;;;-1.92;72.43;102808.19;5034530;28;20036;-56
2023/03/01 06:52:03;;;;;;;28.65;13.68;;;;;;;-1.87;71.82;102812.66;5030262;28;20052;-60
2023/03/01 06:54:28;;;;;;;26.50;12.40;;;;;;;-1.79;72.29;102807.69;5029398;28;20072;-58
2023/03/01 06:56:54;;;;;;;23.33;10.30;;;;;;;-1.71;71.50;102819.13;5029281;28;20071;-55
2023/03/01 06:59:19;;;;;;;22.85;11.23;;;;;;;-1.60;71.96;102816.84;5024712;28;20029;-58
2023/03/01 07:01:45;;;;;;;24.23;10.25;;;;;;;-1.52;71.97;102817.03;5024211;28;22618;-59
2023/03/01 07:04:12;;;;;;;22.48;9.38;;;;;;;-1.47;71.34;102807.69;5013091;28;20041;-57
2023/03/01 07:06:38;;;;;;;17.00;8.32;;;;;;;-1.43;71.43;102812.09;5028862;28;20035;-61
2023/03/01 07:09:03;;;;;;;20.30;8.60;;;;;;;-1.38;71.86;102807.03;5031264;28;20030;-59
2023/03/01 07:11:29;;;;;;;16.88;9.27;;;;;;;-1.34;71.87;102815.72;5044285;28;20029;-59
2023/03/01 07:13:55;;;;;;;14.35;8.10;;;;;;;-1.31;71.40;102815.81;5052111;28;20021;-60
2023/03/01 07:16:20;;;;;;;11.70;4.65;;;;;;;-1.26;72.34;102820.25;5047800;28;20033;-58
2023/03/01 07:18:46;;;;;;;18.52;7.88;;;;;;;-1.18;72.05;102814.41;5045370;28;20040;-57
2023/03/01 07:21:14;;;;;;;12.32;7.47;;;;;;;-1.12;71.59;102807.69;5041653;28;20100;-57
2023/03/01 07:23:40;;;;;;;21.67;10.57;;;;;;;-1.06;71.56;102809.53;5042067;28;20025;-56
2023/03/01 07:26:06;;;;;;;18.67;8.95;;;;;;;-1.01;72.04;102815.72;5037007;28;21049;-55
2023/03/01 07:28:35;;;;;;;27.33;9.68;;;;;;;-0.95;71.91;102813.25;5042855;28;20036;-53
2023/03/01 07:31:02;;;;;;;23.73;7.90;;;;;;;-0.88;71.31;102808.25;5047557;28;20060;-54
2023/03/01 07:33:28;;;;;;;13.75;7.78;;;;;;;-0.82;71.36;102814.41;5043020;28;20044;-64
2023/03/01 07:36:02;;;;;;;17.88;7.38;;;;;;;-0.72;71.77;102810.34;5047747;28;20082;-56
2023/03/01 07:38:28;;;;;;;17.55;7.40;;;;;;;-0.64;70.98;102813.97;5029262;28;20039;-53
2023/03/01 07:40:59;;;;;;;18.48;8.63;;;;;;;-0.57;71.54;102820.13;5047487;28;20376;-53
2023/03/01 07:43:24;;;;;;;22.30;9.00;;;;;;;-0.52;71.64;102810.78;5031884;28;20372;-61
2023/03/01 07:45:50;;;;;;;18.13;8.38;;;;;;;-0.47;70.94;102810.88;5049538;28;20028;-59
2023/03/01 07:48:15;;;;;;;19.90;8.20;;;;;;;-0.48;71.18;102814.28;5049594;28;20025;-56
2023/03/01 07:50:41;;;;;;;16.65;8.73;;;;;;;-0.48;70.94;102811.72;5045230;28;20044;-59
2023/03/01 07:53:06;;;;;;;16.02;8.15;;;;;;;-0.46;71.69;102812.63;5042786;28;20051;-57
2023/03/01 07:55:32;;;;;;;14.90;7.90;;;;;;;-0.40;71.35;102810.19;5045326;28;20024;-57
2023/03/01 07:57:57;;;;;;;16.98;7.38;;;;;;;-0.36;71.28;102809.38;5041951;28;20063;-56
2023/03/01 08:00:23;;;;;;;16.58;8.30;;;;;;;-0.29;71.73;102810.38;5045111;28;20040;-56
2023/03/01 08:02:48;;;;;;;17.88;8.63;;;;;;;-0.21;71.32;102807.94;5045165;28;20044;-59
2023/03/01 08:05:14;;;;;;;12.90;6.85;;;;;;;-0.14;71.18;102819.28;5045171;28;19920;-57
2023/03/01 08:07:39;;;;;;;16.13;7.90;;;;;;;-0.04;70.92;102806.56;5048967;28;20033;-56
2023/03/01 08:10:05;;;;;;;18.92;7.53;;;;;;;0.04;71.40;102805.88;5044221;28;20032;-54
2023/03/01 08:12:30;;;;;;;18.80;8.30;;;;;;;0.13;70.53;102808.63;5049737;28;20036;-58
2023/03/01 08:14:56;;;;;;;16.25;8.05;;;;;;;0.18;70.40;102804.41;5046526;28;20075;-54
2023/03/01 08:17:22;;;;;;;17.20;7.70;;;;;;;0.29;70.48;102804.63;5047537;28;20495;-56
2023/03/01 08:19:47;;;;;;;15.10;6.65;;;;;;;0.42;70.33;102810.88;5048343;28;20032;-57
2023/03/01 08:22:13;;;;;;;15.45;7.13;;;;;;;0.50;70.49;102809.31;5047347;28;20058;-56
2023/03/01 08:24:38;;;;;;;26.48;12.82;;;;;;;0.55;69.95;102810.25;5041395;28;20075;-56
2023/03/01 08:27:04;;;;;;;21.15;12.57;;;;;;;0.63;70.18;102801.75;5023933;28;20029;-56
2023/03/01 08:29:33;;;;;;;17.35;9.30;;;;;;;0.70;70.09;102807.06;5046003;28;20037;-56
2023/03/01 08:31:58;;;;;;;19.13;7.85;;;;;;;0.76;69.82;102801.97;5047781;28;20025;-56
2023/03/01 08:34:24;;;;;;;20.30;7.38;;;;;;;0.81;70.51;102799.47;5037564;28;20078;-57
2023/03/01 08:36:51;;;;;;;18.90;8.55;;;;;;;0.87;70.10;102796.09;5044083;28;20037;-55
2023/03/01 08:39:19;;;;;;;13.90;7.72;;;;;;;0.93;69.75;102797.91;5048411;28;20029;-54
2023/03/01 08:41:44;;;;;;;13.98;6.80;;;;;;;0.95;69.89;102791.03;5042095;28;20494;-56
2023/03/01 08:44:11;;;;;;;13.20;7.10;;;;;;;0.98;70.30;102796.28;5027884;28;20487;-55
2023/03/01 08:46:40;;;;;;;18.35;7.05;;;;;;;1.02;69.88;102787.66;5044610;28;20024;-56
2023/03/01 08:49:13;;;;;;;21.58;8.23;;;;;;;1.02;70.05;102787.66;5039716;28;20100;-56
2023/03/01 08:51:38;;;;;;;15.75;7.70;;;;;;;1.03;70.17;102786.81;5039652;28;20029;-56
2023/03/01 08:54:06;;;;;;;18.63;8.85;;;;;;;1.04;69.92;102775.59;5043922;28;20039;-57
2023/03/01 08:56:31;;;;;;;29.77;11.93;;;;;;;1.07;69.97;102791.22;5049404;28;20032;-55
2023/03/01 08:58:57;;;;;;;15.73;7.35;;;;;;;1.08;70.41;102779.09;5049486;28;20395;-55
2023/03/01 09:01:22;;;;;;;19.13;6.82;;;;;;;1.08;70.47;102786.88;5051128;28;20024;-57
2023/03/01 09:03:48;;;;;;;15.20;6.70;;;;;;;1.10;70.46;102791.25;5048321;28;20060;-57
2023/03/01 09:06:14;;;;;;;14.35;6.47;;;;;;;1.12;70.28;102791.28;5050785;28;20552;-56
2023/03/01 09:08:42;;;;;;;15.07;7.18;;;;;;;1.12;70.17;102768.81;5052646;28;20079;-57
2023/03/01 09:11:10;;;;;;;15.88;7.97;;;;;;;1.17;70.68;102774.94;5053372;28;20029;-58
2023/03/01 09:13:36;;;;;;;14.85;7.07;;;;;;;1.24;70.77;102772.44;5045231;28;20041;-59
2023/03/01 09:16:05;;;;;;;14.38;5.93;;;;;;;1.30;70.54;102772.50;5043722;28;20125;-56
2023/03/01 09:18:30;;;;;;;12.65;5.45;;;;;;;1.36;69.99;102767.41;5052227;28;20459;-55
2023/03/01 09:21:09;;;;;;;8.90;4.15;;;;;;;1.44;70.18;102765.78;5049063;28;20056;-56
2023/03/01 09:23:40;;;;;;;9.13;4.85;;;;;;;1.53;69.63;102765.03;5049315;28;20487;-56
2023/03/01 09:26:08;;;;;;;12.75;5.70;;;;;;;1.57;69.33;102768.56;5047585;28;20035;-56
2023/03/01 09:28:34;;;;;;;11.48;5.05;;;;;;;1.63;69.54;102776.38;5052177;28;20025;-55
2023/03/01 09:31:01;;;;;;;12.40;5.55;;;;;;;1.73;69.42;102772.19;5046307;28;20043;-56
2023/03/01 09:33:28;;;;;;;9.20;3.97;;;;;;;1.78;69.12;102770.53;5049108;28;20028;-53
2023/03/01 09:36:01;;;;;;;11.25;4.80;;;;;;;1.82;68.92;102767.97;5043835;28;20021;-59
2023/03/01 09:38:27;;;;;;;11.63;4.88;;;;;;;1.90;69.12;102759.38;5049945;28;20033;-53
2023/03/01 09:40:53;;;;;;;7.10;3.90;;;;;;;1.97;68.74;102762.06;5051260;28;20640;-58
2023/03/01 09:43:19;;;;;;;6.32;3.30;;;;;;;2.05;68.59;102764.75;5048249;28;20112;-59
2023/03/01 09:45:47;;;;;;;7.10;3.10;;;;;;;2.16;68.32;102759.66;5048238;28;20128;-57
2023/03/01 09:48:25;;;;;;;12.40;4.95;;;;;;;2.24;68.12;102764.94;5052660;28;20107;-59
2023/03/01 09:50:51;;;;;;;11.05;4.57;;;;;;;2.33;67.78;102765.06;5045541;28;20060;-61
2023/03/01 09:53:21;;;;;;;9.75;3.30;;;;;;;2.43;67.25;102765.97;5049580;28;20017;-62
2023/03/01 09:55:58;;;;;;;6.57;2.70;;;;;;;2.52;67.01;102762.59;5044950;28;20044;-58
2023/03/01 09:58:42;;;;;;;8.57;3.60;;;;;;;2.61;66.61;102754.88;5042846;28;20029;-59
2023/03/01 10:01:34;;;;;;;8.32;3.85;;;;;;;2.71;66.57;102766.22;5040810;28;20021;-62
2023/03/01 10:04:21;;;;;;;9.63;3.65;;;;;;;2.83;65.72;102770.63;5049977;28;20417;-61
2023/03/01 10:07:30;;;;;;;5.32;2.75;;;;;;;2.93;64.82;102762.06;5036859;28;20352;-58
2023/03/01 10:09:57;;;;;;;8.10;3.38;;;;;;;3.11;64.89;102770.81;5044796;28;20439;-58
2023/03/01 10:12:30;;;;;;;9.73;3.08;;;;;;;3.26;64.43;102762.25;5045729;28;20068;-57
2023/03/01 10:15:22;;;;;;;9.48;3.20;;;;;;;3.40;64.16;102768.38;5041378;28;20024;-59
2023/03/01 10:17:58;;;;;;;9.45;3.47;;;;;;;3.42;63.51;102760.56;5039416;28;20403;-61
2023/03/01 10:20:37;;;;;;;7.45;3.13;;;;;;;3.46;63.54;102757.13;5043580;28;20028;-54
2023/03/01 10:23:02;;;;;;;5.28;2.75;;;;;;;3.58;63.35;102756.31;5039826;28;20036;-56
2023/03/01 10:26:06;;;;;;;7.75;3.65;;;;;;;3.60;62.87;102752.84;5048159;28;20391;-55
2023/03/01 10:28:49;;;;;;;6.07;2.78;;;;;;;3.64;61.89;102745.91;5048908;28;20119;-53
2023/03/01 10:31:21;;;;;;;10.38;3.45;;;;;;;3.70;62.61;102755.50;5040121;28;20033;-53
2023/03/01 10:33:51;;;;;;;7.05;3.30;;;;;;;3.79;62.40;102755.53;5044759;28;20511;-53
2023/03/01 10:36:16;;;;;;;7.93;3.95;;;;;;;3.83;62.04;102745.97;5045423;28;20495;-56
2023/03/01 10:38:53;;;;;;;8.30;3.28;;;;;;;3.86;62.19;102746.00;5044279;28;20079;-59
2023/03/01 10:41:20;;;;;;;8.13;3.55;;;;;;;3.95;62.06;102746.88;5027026;28;20056;-53
2023/03/01 10:43:51;;;;;;;7.78;3.88;;;;;;;4.02;62.01;102736.47;5040817;28;20064;-53
2023/03/01 10:46:26;;;;;;;7.38;3.03;;;;;;;4.01;61.62;102730.41;5042750;28;20033;-56
2023/03/01 10:49:22;;;;;;;5.95;3.20;;;;;;;4.03;61.63;102722.56;5042441;28;20064;-55
2023/03/01 10:51:50;;;;;;;6.38;3.33;;;;;;;4.11;61.78;102728.69;5033221;28;20112;-58
2023/03/01 10:54:21;;;;;;;8.15;3.45;;;;;;;4.15;61.81;102721.72;5050460;28;20028;-55
2023/03/01 10:56:53;;;;;;;6.88;3.67;;;;;;;4.21;62.08;102727.81;5045037;28;20029;-55
2023/03/01 10:59:27;;;;;;;9.32;3.60;;;;;;;4.25;61.79;102718.25;5047246;28;20567;-57
2023/03/01 11:02:14;;;;;;;7.70;3.95;;;;;;;4.24;61.66;102720.00;5043129;28;20033;-58
2023/03/01 11:04:56;;;;;;;7.00;3.65;;;;;;;4.33;61.83;102721.75;5040066;28;20032;-55
2023/03/01 11:07:22;;;;;;;9.70;4.35;;;;;;;4.37;61.77;102717.41;5046972;28;20029;-59
2023/03/01 11:09:47;;;;;;;10.25;5.03;;;;;;;4.39;62.21;102728.69;5042829;28;20041;-58
2023/03/01 11:12:17;;;;;;;9.40;4.18;;;;;;;4.48;61.69;102726.06;5047717;28;20091;-58
2023/03/01 11:14:48;;;;;;;11.55;4.55;;;;;;;4.51;61.32;102718.25;5040602;28;20025;-55
2023/03/01 11:17:26;;;;;;;9.67;3.83;;;;;;;4.55;61.27;102716.50;5045559;28;20491;-56
2023/03/01 11:20:14;;;;;;;6.32;3.53;;;;;;;4.61;60.92;102713.91;5046531;28;20024;-56
2023/03/01 11:22:49;;;;;;;8.18;3.17;;;;;;;4.66;60.80;102711.28;5043388;28;20075;-55
2023/03/01 11:25:17;;;;;;;9.35;3.83;;;;;;;4.74;60.91;102712.16;5042047;28;20036;-59
2023/03/01 11:27:45;;;;;;;9.30;3.65;;;;;;;4.77;60.67;102714.75;5048874;28;20033;-58
2023/03/01 11:30:20;;;;;;;6.93;3.70;;;;;;;4.78;60.79;102710.41;5045990;28;20033;-59